Impacts METAR Board
IDs:

KATT - Austin/Camp Mabry(NG, TX, US

Updated at: 1700 UTC 16 Oct 2021
Potential Impact None Slight Moderate High
Time 16/05Z 16/06Z 16/07Z 16/08Z 16/09Z 16/10Z 16/11Z 16/12Z 16/13Z 16/14Z 16/15Z 16/16Z 16/17Z
Temp67 65 64 62 61 60 59 58 55 60 64 69 70
Dewpt44 44 43 42 41 42 42 42 43 42 43 40 37
Altim30.24 30.24 30.26 30.27 30.27 30.28 30.30 30.32 30.35 30.37 30.38 30.39 30.38
VIS10 10 10 10 10 10 10 10 10 10 10 10 10
CIG-- -- -- -- -- -- -- -- -- -- -- -- --
CoverCLRCLRCLRCLRCLRCLRCLRCLRCLRCLRCLRCLRCLR
FltCatVFRVFRVFRVFRVFRVFRVFRVFRVFRVFRVFRVFRVFR
WX--------------------------
WDir360360360360360100020000
WSpd10 8 7 7 5 5 0 0 6 5 6 4
WGst22 -- -- -- -- -- -- -- -- -- -- -- --
Raw hourly METARs
KATT 160451Z AUTO 36010G22KT 10SM CLR 19/07 A3024 RMK AO2 SLP230 T01940067
KATT 160551Z AUTO 36008KT 300V020 10SM CLR 18/07 A3024 RMK AO2 SLP230 T01830067 10239 20183 403280183 51025
KATT 160651Z AUTO 36007KT 320V020 10SM CLR 18/06 A3026 RMK AO2 SLP237 T01780061
KATT 160751Z AUTO 36007KT 10SM CLR 17/06 A3027 RMK AO2 SLP239 T01670056
KATT 160851Z AUTO 10SM CLR 16/05 A3027 RMK AO2 SLP243 T01610050 51009
KATT 160951Z AUTO 36005KT 10SM CLR 16/06 A3028 RMK AO2 SLP246 T01560056
KATT 161051Z AUTO 01005KT 10SM CLR 15/06 A3030 RMK AO2 SLP254 T01500056
KATT 161151Z AUTO 00000KT 10SM CLR 14/06 A3032 RMK AO2 SLP262 T01440056 10183 20139 53017
KATT 161251Z AUTO 00000KT 10SM CLR 13/06 A3035 RMK AO2 SLP271 T01280061
KATT 161351Z AUTO 02006KT 10SM CLR 16/06 A3037 RMK AO2 SLP277 T01560056
KATT 161451Z AUTO VRB05KT 10SM CLR 18/06 A3038 RMK AO2 SLP283 T01780061 51020
KATT 161551Z AUTO VRB06KT 10SM CLR 21/04 A3039 RMK AO2 SLP283 T02060044
KATT 161651Z AUTO VRB04KT 10SM CLR 21/03 A3038 RMK AO2 SLP282 T02110028